createdAt,value
2024-05-09T00:01:54.096Z,12.90
2024-05-09T00:04:26.275Z,12.85
2024-05-09T00:06:55.778Z,14.02
2024-05-09T00:09:25.437Z,13.35
2024-05-09T00:11:54.971Z,14.30
2024-05-09T00:14:24.591Z,14.57
2024-05-09T00:16:54.140Z,11.90
2024-05-09T00:19:27.610Z,13.57
2024-05-09T00:21:57.142Z,13.20
2024-05-09T00:24:26.655Z,15.40
2024-05-09T00:26:56.186Z,14.32
2024-05-09T00:29:26.197Z,14.50
2024-05-09T00:31:55.883Z,13.52
2024-05-09T00:34:28.278Z,13.43
2024-05-09T00:36:57.932Z,15.65
2024-05-09T00:39:27.440Z,17.25
2024-05-09T00:41:56.948Z,13.82
2024-05-09T00:44:26.566Z,14.38
2024-05-09T00:46:57.489Z,16.08
2024-05-09T00:49:29.723Z,16.58
2024-05-09T00:51:59.653Z,14.75
2024-05-09T00:54:29.606Z,15.07
2024-05-09T00:56:59.233Z,16.83
2024-05-09T00:59:28.863Z,16.30
2024-05-09T01:01:58.586Z,16.98
2024-05-09T01:04:30.792Z,15.25
2024-05-09T01:07:00.316Z,16.77
2024-05-09T01:09:29.863Z,16.73
2024-05-09T01:11:59.469Z,17.20
2024-05-09T01:14:29.157Z,15.70
2024-05-09T01:16:58.977Z,16.88
2024-05-09T01:19:32.279Z,16.80
2024-05-09T01:22:02.073Z,16.83
2024-05-09T01:24:34.207Z,16.85
2024-05-09T01:27:03.753Z,18.25
2024-05-09T01:29:33.412Z,16.10
2024-05-09T01:34:33.921Z,16.90
2024-05-09T01:37:03.426Z,18.65
2024-05-09T01:39:35.645Z,16.42
2024-05-09T01:42:05.249Z,16.85
2024-05-09T01:44:34.785Z,15.68
2024-05-09T01:47:05.324Z,16.50
2024-05-09T01:49:38.572Z,18.23
2024-05-09T01:52:08.312Z,18.52
2024-05-09T01:54:40.434Z,19.02
2024-05-09T01:57:09.966Z,17.02
2024-05-09T01:59:39.635Z,18.48
2024-05-09T02:02:09.291Z,16.45
2024-05-09T02:04:38.993Z,17.35
2024-05-09T02:07:08.576Z,18.85
2024-05-09T02:09:40.722Z,19.13
2024-05-09T02:12:10.529Z,18.48
2024-05-09T02:14:40.289Z,17.02
2024-05-09T02:17:09.830Z,17.33
2024-05-09T02:19:39.464Z,17.90
2024-05-09T02:22:09.033Z,17.70
2024-05-09T02:24:41.130Z,17.80
2024-05-09T02:27:10.659Z,16.25
2024-05-09T02:29:40.166Z,19.63
2024-05-09T02:32:10.011Z,17.00
2024-05-09T02:34:39.586Z,18.30
2024-05-09T02:37:09.087Z,17.20
2024-05-09T02:39:38.572Z,15.38
2024-05-09T02:42:08.351Z,17.08
2024-05-09T02:44:35.296Z,15.73
2024-05-09T02:47:04.847Z,16.52
2024-05-09T02:49:31.873Z,16.67
2024-05-09T02:52:01.400Z,17.15
2024-05-09T02:54:28.340Z,17.00
2024-05-09T02:57:00.445Z,17.38
2024-05-09T02:59:27.634Z,16.40
2024-05-09T03:01:57.322Z,16.75
2024-05-09T03:04:24.361Z,17.10
2024-05-09T03:06:53.867Z,15.60
2024-05-09T03:09:21.520Z,16.05
2024-05-09T03:11:51.138Z,17.73
2024-05-09T03:14:20.878Z,16.08
2024-05-09T03:16:50.429Z,16.60
2024-05-09T03:19:17.584Z,17.95
2024-05-09T03:21:47.150Z,17.75
2024-05-09T03:24:14.074Z,16.63
2024-05-09T03:26:44.238Z,18.42
2024-05-09T03:29:11.184Z,17.27
2024-05-09T03:31:43.865Z,17.08
2024-05-09T03:34:11.598Z,19.17
2024-05-09T03:36:44.011Z,15.45
2024-05-09T03:39:13.572Z,18.45
2024-05-09T03:41:43.272Z,17.27
2024-05-09T03:44:10.240Z,17.77
2024-05-09T03:46:40.450Z,20.08
2024-05-09T03:49:10.122Z,19.35
2024-05-09T03:51:39.663Z,19.33
2024-05-09T03:54:06.605Z,18.10
2024-05-09T03:56:37.876Z,19.45
2024-05-09T03:59:04.890Z,19.92
2024-05-09T04:01:34.618Z,19.45
2024-05-09T04:04:01.577Z,19.45
2024-05-09T04:06:33.707Z,16.98
2024-05-09T04:09:00.648Z,18.45
2024-05-09T04:11:30.192Z,19.30
2024-05-09T04:13:57.204Z,18.63
2024-05-09T04:16:26.899Z,19.30
2024-05-09T04:18:54.061Z,18.83
2024-05-09T04:21:23.667Z,20.90
2024-05-09T04:23:53.224Z,25.25
2024-05-09T04:26:22.790Z,22.15
2024-05-09T04:28:49.780Z,22.92
2024-05-09T04:31:19.388Z,23.90
2024-05-09T04:33:46.586Z,22.92
2024-05-09T04:36:16.251Z,24.42
2024-05-09T04:38:43.284Z,23.02
2024-05-09T04:41:15.467Z,23.55
2024-05-09T04:43:42.434Z,21.75
2024-05-09T04:46:11.966Z,23.23
2024-05-09T04:48:38.923Z,20.90
2024-05-09T04:51:09.967Z,22.50
2024-05-09T04:53:37.171Z,21.17
2024-05-09T04:56:07.431Z,21.88
2024-05-09T04:58:37.191Z,21.67
2024-05-09T05:01:07.291Z,20.92
2024-05-09T05:03:34.362Z,20.80
2024-05-09T05:06:04.211Z,18.83
2024-05-09T05:08:31.422Z,21.88
2024-05-09T05:11:01.077Z,20.98
2024-05-09T05:13:31.143Z,20.80
2024-05-09T05:16:04.865Z,20.52
2024-05-09T05:18:31.886Z,19.33
2024-05-09T05:21:01.678Z,19.27
2024-05-09T05:23:28.650Z,17.30
2024-05-09T05:25:58.228Z,17.02
2024-05-09T05:28:25.215Z,14.90
2024-05-09T05:30:54.710Z,14.15
2024-05-09T05:33:24.374Z,12.07
2024-05-09T05:35:54.131Z,12.18
2024-05-09T05:38:24.868Z,12.10
2024-05-09T05:40:57.028Z,11.35
2024-05-09T05:43:24.000Z,11.52
2024-05-09T05:45:53.516Z,10.98
2024-05-09T05:48:23.248Z,11.18
2024-05-09T05:50:53.275Z,10.20
2024-05-09T05:53:22.900Z,10.55
2024-05-09T05:55:49.864Z,11.48
2024-05-09T05:58:20.269Z,11.07
2024-05-09T06:00:48.058Z,11.43
2024-05-09T06:03:18.267Z,11.88
2024-05-09T06:05:46.550Z,11.55
2024-05-09T06:08:19.022Z,11.95
2024-05-09T06:10:46.234Z,13.65
2024-05-09T06:13:16.089Z,12.68
2024-05-09T06:15:43.825Z,14.20
2024-05-09T06:18:13.870Z,12.90
2024-05-09T06:20:42.239Z,13.55
2024-05-09T06:23:13.375Z,12.95
2024-05-09T06:25:43.956Z,12.20
2024-05-09T06:28:13.919Z,12.50
2024-05-09T06:30:42.594Z,12.63
2024-05-09T06:33:15.688Z,12.38
2024-05-09T06:35:43.951Z,9.23
2024-05-09T06:38:13.750Z,8.90
2024-05-09T06:40:44.478Z,8.40
2024-05-09T06:43:16.888Z,9.13
2024-05-09T06:45:46.715Z,9.38
2024-05-09T06:48:16.532Z,9.90
2024-05-09T06:50:44.372Z,10.65
2024-05-09T06:53:16.672Z,11.02
2024-05-09T06:55:46.262Z,11.05
2024-05-09T06:58:15.820Z,11.02
2024-05-09T07:00:42.812Z,10.65
2024-05-09T07:03:14.932Z,11.52
2024-05-09T07:05:44.431Z,10.82
2024-05-09T07:08:16.045Z,11.23
2024-05-09T07:10:43.192Z,10.93
2024-05-09T07:13:16.195Z,9.20
2024-05-09T07:15:43.276Z,10.30
2024-05-09T07:18:15.366Z,9.30
2024-05-09T07:20:42.915Z,7.90
2024-05-09T07:23:12.935Z,7.28
2024-05-09T07:25:41.125Z,6.50
2024-05-09T07:28:17.082Z,7.40
2024-05-09T07:30:44.241Z,6.85
2024-05-09T07:33:18.764Z,6.60
2024-05-09T07:35:46.491Z,6.75
2024-05-09T07:38:16.255Z,6.65
2024-05-09T07:40:43.354Z,6.47
2024-05-09T07:43:15.737Z,10.57
2024-05-09T07:45:51.242Z,11.18
2024-05-09T07:52:38.372Z,11.18
2024-05-09T07:53:49.065Z,12.80
2024-05-09T07:56:21.841Z,11.85
2024-05-09T07:58:55.927Z,12.43
2024-05-09T08:01:27.172Z,10.65
2024-05-09T08:03:54.659Z,8.25
2024-05-09T08:06:24.380Z,11.95
2024-05-09T08:08:51.390Z,10.27
2024-05-09T08:11:21.042Z,11.90
2024-05-09T08:13:47.931Z,7.50
2024-05-09T08:16:20.256Z,11.40
2024-05-09T08:18:49.067Z,12.20
2024-05-09T08:21:19.233Z,11.68
2024-05-09T08:23:46.185Z,11.10
2024-05-09T08:26:15.679Z,9.43
2024-05-09T08:28:42.577Z,11.77
2024-05-09T08:31:12.530Z,12.70
2024-05-09T08:33:49.080Z,12.15
2024-05-09T08:36:16.108Z,11.32
2024-05-09T08:38:45.689Z,12.63
2024-05-09T08:41:14.377Z,12.02
2024-05-09T08:43:44.243Z,7.85
2024-05-09T08:46:12.961Z,9.45
2024-05-09T08:48:44.007Z,10.05
2024-05-09T08:51:13.936Z,10.85
2024-05-09T08:53:43.444Z,10.10
2024-05-09T08:56:11.522Z,12.05
2024-05-09T08:58:41.706Z,11.57
2024-05-09T09:01:10.139Z,10.82
2024-05-09T09:03:40.309Z,10.13
2024-05-09T09:06:09.340Z,10.40
2024-05-09T09:08:42.114Z,10.27
2024-05-09T09:11:09.091Z,11.13
2024-05-09T09:13:38.642Z,11.10
2024-05-09T09:16:06.682Z,9.60
2024-05-09T09:18:36.342Z,9.45
2024-05-09T09:21:03.550Z,9.13
2024-05-09T09:23:33.107Z,10.88
2024-05-09T09:26:02.653Z,9.80
2024-05-09T09:28:32.225Z,10.43
2024-05-09T09:31:03.000Z,10.82
2024-05-09T09:33:35.356Z,9.18
2024-05-09T09:36:03.032Z,10.23
2024-05-09T09:38:34.091Z,10.27
2024-05-09T09:41:06.982Z,9.90
2024-05-09T09:43:38.793Z,10.50
2024-05-09T09:46:08.707Z,9.45
2024-05-09T09:48:41.461Z,9.75
2024-05-09T09:51:08.924Z,10.25
2024-05-09T09:53:39.964Z,9.93
2024-05-09T09:56:10.346Z,8.20
2024-05-09T09:58:41.408Z,8.35
2024-05-09T10:01:08.549Z,9.30
2024-05-09T10:03:38.471Z,9.90
2024-05-09T10:06:06.851Z,8.60
2024-05-09T10:08:37.413Z,8.82
2024-05-09T10:11:04.695Z,9.00
2024-05-09T10:13:38.087Z,9.57
2024-05-09T10:16:09.595Z,9.25
2024-05-09T10:18:39.907Z,8.60
2024-05-09T10:21:16.525Z,8.25
2024-05-09T10:23:46.750Z,8.93
2024-05-09T10:26:13.680Z,8.93
2024-05-09T10:28:47.464Z,7.65
2024-05-09T10:31:15.872Z,9.30
2024-05-09T10:33:49.685Z,9.10
2024-05-09T10:36:20.091Z,8.63
2024-05-09T10:38:49.670Z,8.75
2024-05-09T10:41:16.857Z,9.15
2024-05-09T10:43:49.537Z,9.73
2024-05-09T10:46:18.052Z,9.02
2024-05-09T10:48:48.447Z,7.82
2024-05-09T10:51:16.747Z,7.65
2024-05-09T10:53:47.251Z,8.70
2024-05-09T10:56:17.609Z,7.22
2024-05-09T10:58:48.110Z,8.18
2024-05-09T11:01:18.803Z,8.35
2024-05-09T11:03:47.566Z,8.20
2024-05-09T11:08:44.591Z,9.30
2024-05-09T11:11:14.174Z,8.48
2024-05-09T11:13:41.186Z,9.25
2024-05-09T11:16:22.068Z,8.30
2024-05-09T11:18:59.494Z,8.93
2024-05-09T11:21:26.755Z,8.35
2024-05-09T11:23:56.389Z,8.65
2024-05-09T11:26:25.138Z,9.15
2024-05-09T11:28:54.767Z,9.48
2024-05-09T11:31:24.569Z,9.07
2024-05-09T11:33:56.726Z,8.90
2024-05-09T11:36:23.747Z,9.07
2024-05-09T11:38:53.495Z,9.10
2024-05-09T11:41:20.487Z,8.80
2024-05-09T11:43:49.983Z,8.70
2024-05-09T11:46:17.154Z,9.13
2024-05-09T11:48:49.636Z,8.48
2024-05-09T11:51:16.621Z,8.35
2024-05-09T11:53:46.135Z,9.00
2024-05-09T11:56:15.360Z,10.00
2024-05-09T11:58:44.911Z,9.52
2024-05-09T12:01:11.934Z,9.60
2024-05-09T12:03:41.582Z,8.63
2024-05-09T12:06:11.256Z,10.30
2024-05-09T12:08:41.095Z,9.20
2024-05-09T12:11:08.148Z,8.07
2024-05-09T12:13:37.726Z,9.48
2024-05-09T12:16:05.347Z,8.50
2024-05-09T12:18:35.352Z,8.23
2024-05-09T12:21:02.473Z,8.02
2024-05-09T12:23:34.580Z,9.43
2024-05-09T12:26:02.903Z,8.65
2024-05-09T12:28:32.539Z,8.27
2024-05-09T12:30:59.591Z,9.25
2024-05-09T12:33:29.615Z,8.45
2024-05-09T12:35:56.649Z,9.10
2024-05-09T12:38:26.155Z,9.07
2024-05-09T12:40:56.120Z,7.60
2024-05-09T12:43:26.004Z,7.85
2024-05-09T12:46:39.000Z,10.57
2024-05-09T12:49:06.073Z,8.40
2024-05-09T12:51:35.717Z,8.80
2024-05-09T12:54:02.665Z,8.32
2024-05-09T12:56:33.438Z,8.95
2024-05-09T12:59:00.389Z,7.50
2024-05-09T13:01:30.201Z,9.32
2024-05-09T13:04:00.140Z,7.45
2024-05-09T13:06:29.840Z,10.20
2024-05-09T13:08:56.812Z,9.52
2024-05-09T13:11:26.377Z,8.85
2024-05-09T13:13:53.300Z,10.65
2024-05-09T13:16:22.975Z,8.93
2024-05-09T13:18:50.233Z,8.90
2024-05-09T13:21:22.651Z,8.43
2024-05-09T13:23:49.604Z,7.90
2024-05-09T13:26:19.093Z,7.60
2024-05-09T13:28:46.038Z,8.15
2024-05-09T13:31:15.592Z,8.45
2024-05-09T13:33:42.680Z,8.23
2024-05-09T13:36:12.351Z,8.07
2024-05-09T13:38:41.932Z,9.38
2024-05-09T13:41:11.573Z,8.13
2024-05-09T13:43:38.896Z,7.88
2024-05-09T13:46:08.617Z,9.95
2024-05-09T13:48:35.783Z,8.50
2024-05-09T13:51:05.421Z,7.22
2024-05-09T13:53:32.367Z,5.53
2024-05-09T13:56:04.507Z,7.40
2024-05-09T13:58:31.668Z,6.97
2024-05-09T14:01:01.266Z,9.23
2024-05-09T14:03:29.936Z,6.95
2024-05-09T14:08:26.659Z,7.90
2024-05-09T14:10:56.310Z,8.57
2024-05-09T14:13:25.968Z,8.18
2024-05-09T14:15:55.708Z,7.53
2024-05-09T14:18:22.902Z,8.82
2024-05-09T14:20:52.533Z,9.30
2024-05-09T14:23:19.437Z,8.32
2024-05-09T14:25:52.050Z,7.88
2024-05-09T14:28:19.992Z,8.20
2024-05-09T14:30:53.232Z,7.38
2024-05-09T14:33:25.441Z,8.18
2024-05-09T14:35:55.427Z,7.25
2024-05-09T14:38:23.187Z,7.07
2024-05-09T14:40:53.292Z,7.53
2024-05-09T14:43:20.461Z,7.78
2024-05-09T14:45:53.309Z,8.55
2024-05-09T14:48:20.476Z,7.60
2024-05-09T14:50:50.360Z,7.50
2024-05-09T14:53:17.468Z,7.85
2024-05-09T14:55:47.311Z,7.18
2024-05-09T14:58:14.344Z,7.90
2024-05-09T15:00:48.506Z,7.45
2024-05-09T15:03:21.605Z,7.15
2024-05-09T15:05:52.479Z,8.90
2024-05-09T15:08:20.234Z,9.13
2024-05-09T15:10:50.686Z,8.65
2024-05-09T15:13:18.216Z,8.57
2024-05-09T15:15:48.207Z,9.07
2024-05-09T15:18:15.537Z,7.10
2024-05-09T15:20:48.285Z,8.48
2024-05-09T15:23:15.403Z,7.10
2024-05-09T15:25:45.069Z,8.85
2024-05-09T15:28:12.145Z,7.60
2024-05-09T15:30:45.478Z,7.95
2024-05-09T15:33:13.906Z,8.48
2024-05-09T15:35:45.675Z,8.65
2024-05-09T15:38:15.875Z,7.90
2024-05-09T15:40:45.388Z,8.68
2024-05-09T15:43:12.560Z,7.50
2024-05-09T15:45:42.524Z,8.77
2024-05-09T15:48:10.321Z,8.02
2024-05-09T15:50:42.141Z,7.72
2024-05-09T15:53:10.977Z,7.93
2024-05-09T15:58:11.361Z,8.73
2024-05-09T16:00:43.331Z,7.57
2024-05-09T16:03:13.347Z,7.75
2024-05-09T16:05:44.314Z,6.60
2024-05-09T16:08:12.266Z,8.55
2024-05-09T16:10:45.992Z,8.07
2024-05-09T16:13:14.590Z,7.25
2024-05-09T16:15:45.970Z,7.38
2024-05-09T16:18:13.360Z,6.63
2024-05-09T16:20:44.862Z,7.30
2024-05-09T16:23:13.593Z,7.63
2024-05-09T16:25:47.800Z,7.03
2024-05-09T16:28:15.260Z,7.32
2024-05-09T16:30:44.930Z,6.75
2024-05-09T16:33:14.735Z,7.40
2024-05-09T16:35:41.692Z,6.38
2024-05-09T16:38:11.380Z,5.82
2024-05-09T16:40:40.749Z,7.85
2024-05-09T16:43:14.223Z,7.68
2024-05-09T16:45:43.792Z,6.82
2024-05-09T16:48:14.158Z,7.30
2024-05-09T16:50:41.411Z,7.45
2024-05-09T16:53:11.158Z,5.68
2024-05-09T16:55:38.424Z,7.10
2024-05-09T16:58:09.210Z,9.23
2024-05-09T17:00:42.630Z,8.27
2024-05-09T17:03:15.890Z,8.40
2024-05-09T17:05:43.935Z,7.13
2024-05-09T17:08:13.797Z,7.35
2024-05-09T17:10:40.888Z,8.70
2024-05-09T17:13:10.535Z,8.90
2024-05-09T17:15:42.735Z,7.40
2024-05-09T17:18:12.374Z,8.13
2024-05-09T17:20:39.393Z,9.95
2024-05-09T17:23:13.323Z,8.48
2024-05-09T17:25:41.619Z,8.75
2024-05-09T17:28:11.711Z,8.05
2024-05-09T17:30:44.277Z,7.80
2024-05-09T17:33:12.627Z,9.40
2024-05-09T17:35:45.534Z,9.63
2024-05-09T17:38:12.674Z,9.05
2024-05-09T17:40:42.246Z,9.30
2024-05-09T17:43:10.485Z,9.32
2024-05-09T17:45:41.597Z,8.55
2024-05-09T17:48:12.394Z,8.38
2024-05-09T17:50:42.531Z,9.35
2024-05-09T17:53:10.163Z,9.07
2024-05-09T17:55:40.720Z,9.23
2024-05-09T17:58:08.046Z,9.00
2024-05-09T18:00:40.762Z,9.45
2024-05-09T18:03:13.044Z,7.75
2024-05-09T18:05:44.691Z,8.30
2024-05-09T18:08:12.468Z,8.45
2024-05-09T18:10:43.023Z,9.00
2024-05-09T18:13:11.082Z,7.93
2024-05-09T18:15:41.613Z,8.68
2024-05-09T18:18:12.363Z,8.57
2024-05-09T18:20:45.433Z,8.30
2024-05-09T18:23:16.201Z,8.02
2024-05-09T18:25:48.086Z,8.32
2024-05-09T18:28:16.571Z,7.85
2024-05-09T18:30:47.514Z,7.93
2024-05-09T18:33:17.473Z,8.25
2024-05-09T18:35:48.715Z,7.78
2024-05-09T18:38:16.222Z,7.20
2024-05-09T18:40:48.957Z,7.45
2024-05-09T18:43:17.308Z,7.60
2024-05-09T18:45:47.853Z,7.00
2024-05-09T18:48:18.440Z,5.95
2024-05-09T18:50:48.476Z,7.50
2024-05-09T18:53:16.235Z,6.93
2024-05-09T18:55:46.091Z,6.65
2024-05-09T18:58:13.589Z,6.07
2024-05-09T19:00:46.011Z,7.20
2024-05-09T19:03:18.294Z,6.90
2024-05-09T19:05:48.830Z,7.60
2024-05-09T19:08:16.024Z,6.93
2024-05-09T19:10:46.068Z,6.60
2024-05-09T19:13:14.376Z,6.82
2024-05-09T19:15:44.994Z,7.22
2024-05-09T19:18:12.727Z,7.28
2024-05-09T19:20:45.844Z,6.63
2024-05-09T19:23:12.933Z,7.32
2024-05-09T19:25:42.587Z,6.65
2024-05-09T19:28:09.580Z,7.05
2024-05-09T19:30:41.914Z,8.05
2024-05-09T19:33:11.371Z,6.88
2024-05-09T19:35:44.700Z,6.57
2024-05-09T19:38:11.943Z,6.95
2024-05-09T19:40:41.723Z,6.20
2024-05-09T19:43:11.665Z,7.20
2024-05-09T19:45:38.883Z,7.57
2024-05-09T19:48:09.490Z,7.05
2024-05-09T19:50:41.927Z,6.68
2024-05-09T19:53:16.919Z,6.88
2024-05-09T19:55:43.947Z,6.80
2024-05-09T19:58:13.730Z,7.43
2024-05-09T20:00:43.023Z,6.75
2024-05-09T20:03:14.821Z,7.15
2024-05-09T20:05:43.821Z,6.93
2024-05-09T20:08:16.216Z,7.45
2024-05-09T20:10:43.383Z,7.35
2024-05-09T20:13:13.020Z,6.63
2024-05-09T20:15:40.288Z,7.05
2024-05-09T20:18:10.109Z,6.43
2024-05-09T20:20:41.284Z,6.80
2024-05-09T20:23:16.226Z,7.28
2024-05-09T20:25:43.371Z,6.22
2024-05-09T20:28:12.942Z,7.72
2024-05-09T20:30:40.142Z,7.60
2024-05-09T20:33:10.391Z,7.07
2024-05-09T20:35:37.743Z,6.80
2024-05-09T20:38:07.667Z,6.38
2024-05-09T20:40:39.193Z,6.00
2024-05-09T20:43:10.802Z,6.18
2024-05-09T20:45:38.406Z,7.22
2024-05-09T20:48:09.710Z,6.55
2024-05-09T20:50:40.608Z,5.95
2024-05-09T20:53:13.722Z,6.10
2024-05-09T20:55:45.007Z,6.03
2024-05-09T20:58:15.165Z,6.63
2024-05-09T21:00:44.842Z,6.47
2024-05-09T21:03:17.016Z,6.55
2024-05-09T21:05:45.973Z,6.75
2024-05-09T21:08:15.809Z,6.10
2024-05-09T21:10:45.524Z,6.90
2024-05-09T21:13:15.312Z,5.97
2024-05-09T21:15:42.382Z,6.20
2024-05-09T21:18:11.947Z,6.07
2024-05-09T21:20:38.943Z,6.40
2024-05-09T21:23:08.487Z,6.30
2024-05-09T21:25:35.398Z,7.78
2024-05-09T21:28:08.142Z,6.30
2024-05-09T21:30:41.460Z,6.57
2024-05-09T21:33:14.266Z,5.80
2024-05-09T21:35:42.189Z,6.90
2024-05-09T21:38:13.324Z,6.13
2024-05-09T21:40:40.321Z,6.80
2024-05-09T21:43:12.596Z,6.97
2024-05-09T21:45:39.686Z,6.97
2024-05-09T21:48:10.378Z,6.93
2024-05-09T21:50:40.954Z,6.50
2024-05-09T21:53:12.862Z,6.60
2024-05-09T21:55:40.410Z,6.90
2024-05-09T21:58:12.646Z,6.30
2024-05-09T22:00:42.465Z,7.70
2024-05-09T22:03:12.718Z,6.68
2024-05-09T22:05:43.379Z,6.88
2024-05-09T22:08:13.263Z,6.70
2024-05-09T22:10:40.478Z,7.82
2024-05-09T22:13:12.846Z,7.25
2024-05-09T22:15:40.742Z,6.65
2024-05-09T22:18:11.773Z,6.53
2024-05-09T22:20:44.279Z,6.82
2024-05-09T22:23:15.208Z,6.95
2024-05-09T22:25:42.322Z,7.00
2024-05-09T22:28:16.084Z,8.10
2024-05-09T22:30:45.668Z,6.70
2024-05-09T22:33:15.769Z,6.80
2024-05-09T22:35:43.004Z,8.13
2024-05-09T22:38:12.518Z,7.07
2024-05-09T22:40:47.133Z,7.43
2024-05-09T22:43:24.630Z,7.70
2024-05-09T22:45:52.634Z,8.23
2024-05-09T22:48:23.391Z,8.65
2024-05-09T22:50:50.634Z,8.23
2024-05-09T22:53:20.516Z,7.70
2024-05-09T22:55:47.449Z,7.78
2024-05-09T22:58:17.063Z,7.40
2024-05-09T23:00:46.800Z,7.82
2024-05-09T23:03:18.539Z,8.75
2024-05-09T23:05:45.574Z,8.27
2024-05-09T23:08:15.087Z,8.75
2024-05-09T23:10:42.043Z,8.98
2024-05-09T23:13:11.607Z,9.02
2024-05-09T23:15:38.931Z,9.70
2024-05-09T23:18:11.436Z,7.85
2024-05-09T23:20:41.007Z,8.68
2024-05-09T23:23:08.501Z,7.75
2024-05-09T23:25:39.090Z,8.48
2024-05-09T23:28:06.573Z,9.73
2024-05-09T23:30:39.419Z,8.32
2024-05-09T23:33:11.687Z,8.13
2024-05-09T23:35:41.450Z,8.68
2024-05-09T23:38:08.416Z,9.32
2024-05-09T23:40:40.510Z,9.50
2024-05-09T23:43:09.293Z,10.10
2024-05-09T23:45:39.233Z,9.90
2024-05-09T23:48:07.792Z,9.43
2024-05-09T23:50:40.924Z,9.93
2024-05-09T23:53:09.455Z,9.32
2024-05-09T23:55:39.877Z,9.98
2024-05-09T23:58:07.415Z,9.88
